EmailTwitter


Observations de surface / Québec / CYSC

Régions: Québec | Canada | États-Unis | Europe | France | UK | Ailleurs
Station
Affichage
Infos & localisation pour CYSC | Aide pour décoder les METARs

Observations prises le 2019-04-22 à 10H43 UTC à SHERBROOKE, QB (CYSC)

Etat du ciel: partiellement nuageux.

Obstacle(s) à la visibilité: brume.

Température: 7.0 Celsius

Point de rosée: 7.0 Celsius

Humidité relative: 100%

Vents: Variable à 7 km/h ou 4 noeuds.

Pression au niveau moyen de la mer: 102.27 kilopascals.

Calage altimétrique: 102.20 kilopascals ou 30.18 pouces de mercure.

Visibilité horizontale: 0.62 milles terrestres ou 1.00 kilomètres.

Hauteur du plafond: 366 mètres ( 1200 pieds ).

Observation METAR:

CYSC 221043Z AUTO VRB04KT 5/8SM BR SCT001 BKN012 07/07 A3018 RMK VIS VRB 1/8-3

SLP227=